Have a Safe July 4th! 

Flight Track Log - Related Links

Times and Time Zones

All times are in EDT time to prevent confusion due to time zone crossing. See the ASQ5874 flight status page for this flight to view local times or setup timezone preferences in your user account.

Time Position Orientation Groundspeed Altitude Reporting Facility
EDT Latitude Longitude Course Direction KTS MPH feet Rate Location/Type
Sat 05:09:30 PM 41.9500 -87.9167 257° West 162 186 1,600  Level Chicago TRACON
Sat 05:10:30 PM 41.9167 -87.9667 228° Southwest 194 223 3,900 2,150 Climbing Chicago TRACON
Sat 05:11:30 PM 41.9167 -88.0500 270° West 220 253 5,900 1,796 Climbing Chicago TRACON
Sat 05:12:00 PM 41.8528 -88.2378 254° West  Level Estimated
Sat 05:13:00 PM 41.8323 -88.3591 257° West  Level FlightAware Approximate
Sat 05:13:07 PM 41.9378 -88.1794 282° West 248 285 8,600  Level Chicago Center
Sat 05:14:00 PM 41.8116 -88.4803 257° West  Level FlightAware Approximate
Sat 05:14:09 PM 41.9289 -88.2744 263° West 259 298 10,400  Level Chicago Center
Sat 05:15:11 PM 41.9042 -88.3728 251° West 276 318 11,300 919 Climbing Chicago Center
Sat 05:16:13 PM 41.8711 -88.5056 252° West 313 360 12,300 927 Climbing Chicago Center
Sat 05:17:14 PM 41.8428 -88.6236 252° West 332 382 13,200 1,171 Climbing Chicago Center
Sat 05:18:16 PM 41.8131 -88.7422 251° West 339 390 14,700 1,306 Climbing Chicago Center
Sat 05:19:18 PM 41.7833 -88.8592 251° West 336 387 15,900 1,065 Climbing Chicago Center
Sat 05:20:20 PM 41.7536 -88.9778 251° West 338 389 16,900 1,024 Climbing Chicago Center
Sat 05:21:21 PM 41.7239 -89.0969 252° West 339 390 18,000 927 Climbing Chicago Center
Sat 05:22:23 PM 41.6889 -89.2392 252° West 339 390 18,800 726 Climbing Chicago Center
Sat 05:23:25 PM 41.6578 -89.3594 251° West 343 395 19,500 726 Climbing Chicago Center
Sat 05:24:27 PM 41.6256 -89.4822 251° West 351 404 20,300 780 Climbing Chicago Center
Sat 05:25:28 PM 41.5928 -89.6094 251° West 356 410 21,100 878 Climbing Chicago Center
Sat 05:26:30 PM 41.5617 -89.7339 252° West 353 406 22,100 968 Climbing Chicago Center
Sat 05:27:32 PM 41.5283 -89.8567 250° West 353 406 23,100 976 Climbing Chicago Center
Sat 05:28:33 PM 41.4969 -89.9797 251° West 352 405 24,100 1,024 Climbing Chicago Center
Sat 05:29:35 PM 41.4592 -90.1239 251° West 346 398 25,200 1,016 Climbing Chicago Center
Sat 05:30:37 PM 41.4289 -90.2397 251° West 335 386 26,200 919 Climbing Chicago Center
Sat 05:31:39 PM 41.3964 -90.3550 249° West 334 384 27,100 927 Climbing Chicago Center
Sat 05:32:40 PM 41.3486 -90.4572 238° Southwest 326 375 28,100 976 Climbing Chicago Center
Sat 05:33:42 PM 41.2992 -90.5608 238° Southwest 330 380 29,100 968 Climbing Chicago Center
Sat 05:34:44 PM 41.2494 -90.6661 238° Southwest 336 387 30,100 919 Climbing Chicago Center
Sat 05:35:46 PM 41.2003 -90.7686 238° Southwest 333 383 31,000 1,024 Climbing Chicago Center
Sat 05:36:47 PM 41.1417 -90.8903 237° Southwest 328 377 32,200 1,073 Climbing Chicago Center
Sat 05:37:49 PM 41.0931 -90.9919 238° Southwest 327 376 33,200 968 Climbing Chicago Center
Sat 05:38:51 PM 41.0453 -91.0911 237° Southwest 323 372 34,200 919 Climbing Chicago Center
Sat 05:39:53 PM 40.9961 -91.1914 237° Southwest 324 373 35,100 878 Climbing Chicago Center
Sat 05:40:54 PM 40.9486 -91.2889 237° Southwest 318 366 36,000 439 Climbing Chicago Center
Sat 05:41:56 PM 40.8969 -91.3961 238° Southwest 330 380 36,000  Level Chicago Center
Sat 05:42:58 PM 40.8436 -91.5061 237° Southwest 352 405 36,000  Level Chicago Center
Sat 05:43:59 PM 40.7875 -91.6200 237° Southwest 370 426 36,000  Level Chicago Center
Sat 05:45:01 PM 40.7214 -91.7533 237° Southwest 366 421 36,000  Level Chicago Center
Sat 05:46:03 PM 40.6683 -91.8614 237° Southwest 356 410 36,000  Level Chicago Center
Sat 05:47:05 PM 40.6142 -91.9692 237° Southwest 356 410 36,000  Level Chicago Center
Sat 05:47:35 PM 40.5819 -92.0331 236° Southwest 355 409 36,000  Level Kansas City Center
Sat 05:48:37 PM 40.5289 -92.1411 237° Southwest 354 407 36,000  Level Kansas City Center
Sat 05:49:38 PM 40.4744 -92.2508 237° Southwest 358 412 36,000  Level Kansas City Center
Sat 05:50:40 PM 40.4169 -92.3642 236° Southwest 365 420 36,000  Level Kansas City Center
Sat 05:51:41 PM 40.3600 -92.4764 236° Southwest 368 423 36,000  Level Kansas City Center
Sat 05:52:43 PM 40.2978 -92.5953 236° Southwest 374 430 36,000  Level Kansas City Center
Sat 05:53:44 PM 40.2447 -92.7053 238° Southwest 374 430 36,000  Level Kansas City Center
Sat 05:54:46 PM 40.1806 -92.8275 236° Southwest 367 422 36,000  Level Kansas City Center
Sat 05:55:47 PM 40.1267 -92.9325 236° Southwest 363 418 36,000  Level Kansas City Center
Sat 05:56:48 PM 40.0647 -93.0539 236° Southwest 361 415 36,000  Level Kansas City Center
Sat 05:57:50 PM 40.0067 -93.1647 236° Southwest 360 414 36,000  Level Kansas City Center
Sat 05:58:52 PM 39.9517 -93.2719 236° Southwest 359 413 36,000  Level Kansas City Center
Sat 05:59:53 PM 39.8978 -93.3794 237° Southwest 358 412 36,000  Level Kansas City Center
Sat 06:00:55 PM 39.8422 -93.4864 236° Southwest 359 413 36,000  Level Kansas City Center
Sat 06:01:56 PM 39.7861 -93.5914 235° Southwest 358 412 36,000  Level Kansas City Center
Sat 06:02:58 PM 39.7300 -93.6967 235° Southwest 357 411 36,000  Level Kansas City Center
Sat 06:03:59 PM 39.6642 -93.8256 236° Southwest 360 414 36,000  Level Kansas City Center
Sat 06:05:01 PM 39.6106 -93.9261 235° Southwest 356 410 36,000  Level Kansas City Center
Sat 06:06:02 PM 39.5569 -94.0281 236° Southwest 357 411 36,000  Level Kansas City Center
Sat 06:07:04 PM 39.4947 -94.1458 236° Southwest 355 409 36,000  Level Kansas City Center
Sat 06:08:05 PM 39.4408 -94.2475 236° Southwest 357 411 36,000  Level Kansas City Center
Sat 06:09:06 PM 39.3778 -94.3653 235° Southwest 356 410 36,000  Level Kansas City Center
Sat 06:10:08 PM 39.3236 -94.4650 235° Southwest 355 409 36,000 -98 Level Kansas City Center
Sat 06:11:09 PM 39.2692 -94.5653 235° Southwest 356 410 35,800 -732 Descending Kansas City Center
Sat 06:12:11 PM 39.2044 -94.6850 235° Southwest 363 418 34,500 -1,463 Descending Kansas City Center
Sat 06:13:12 PM 39.1486 -94.7869 235° Southwest 366 421 32,800 -1,918 Descending Kansas City Center
Sat 06:14:13 PM 39.0825 -94.9094 235° Southwest 370 426 30,600 -2,049 Descending Kansas City Center
Sat 06:15:15 PM 39.0264 -95.0136 235° Southwest 366 421 28,600 -1,805 Descending Kansas City Center
Sat 06:16:16 PM 38.9692 -95.1175 235° Southwest 368 423 26,900 -1,659 Descending Kansas City Center
Sat 06:17:18 PM 38.9028 -95.2383 235° Southwest 368 423 25,200 -1,366 Descending Kansas City Center
Sat 06:18:19 PM 38.8436 -95.3450 235° Southwest 380 437 24,100 -590 Descending Kansas City Center
Sat 06:19:20 PM 38.7853 -95.4508 235° Southwest 378 435 24,000 -49 Descending Kansas City Center
Sat 06:20:22 PM 38.7161 -95.5736 234° Southwest 378 435 24,000 -341 Level Kansas City Center
Sat 06:21:23 PM 38.6517 -95.6875 234° Southwest 386 444 23,300 -976 Descending Kansas City Center
Sat 06:22:25 PM 38.5958 -95.7892 235° Southwest 390 449 22,000 -1,512 Descending Kansas City Center
Sat 06:23:26 PM 38.5292 -95.9150 236° Southwest 383 441 20,200 -1,366 Descending Kansas City Center
Sat 06:24:28 PM 38.4706 -96.0186 234° Southwest 376 433 19,200 -1,073 Descending Kansas City Center
Sat 06:25:29 PM 38.3992 -96.1361 232° Southwest 376 433 18,000 -1,024 Descending Kansas City Center
Sat 06:26:31 PM 38.3400 -96.2411 234° Southwest 379 436 17,100 -927 Descending Kansas City Center
Sat 06:27:32 PM 38.2811 -96.3431 234° Southwest 376 433 16,100 -537 Descending Kansas City Center
Sat 06:28:34 PM 38.2108 -96.4647 234° Southwest 370 426 16,000 -49 Descending Kansas City Center
Sat 06:29:35 PM 38.1536 -96.5669 235° Southwest 384 442 16,000 -82 Level Kansas City Center
Sat 06:29:47 PM 38.1331 -96.6006 232° Southwest 380 437 15,900 -968 Descending Kansas City Center
Sat 06:30:37 PM 38.0906 -96.6772 235° Southwest 384 442 15,000 -1,514 Descending Kansas City Center
Sat 06:31:38 PM 38.0294 -96.7836 234° Southwest 375 432 13,100 -1,699 Descending Kansas City Center
Sat 06:32:30 PM 37.9725 -96.8797 233° Southwest 324 373 11,800 -1,279 Descending Kansas City Center
Sat 06:32:39 PM 37.9731 -96.8789 50° Northeast 342 394 11,800 -1,574 Level Kansas City Center
Sat 06:33:31 PM 37.9261 -96.9617 234° Southwest 278 320 10,200 -1,935 Descending Kansas City Center
Sat 06:33:41 PM 37.9164 -96.9778 233° Southwest 292 336 9,800 -1,964 Descending Kansas City Center
Sat 06:34:26 PM 37.8831 -97.0347 233° Southwest 275 316 8,400 -1,967 Descending Kansas City Center
Sat 06:34:42 PM 37.8706 -97.0569 235° Southwest 281 323 7,800 -1,900 Descending Kansas City Center
Sat 06:35:26 PM 37.8386 -97.1136 234° Southwest 277 319 6,500 -1,548 Descending Kansas City Center
Sat 06:35:44 PM 37.8250 -97.1336 229° Southwest 274 315 6,200 -835 Descending Kansas City Center
Sat 06:36:45 PM 37.7717 -97.1908 220° Southwest 252 290 5,400 -1,156 Descending Kansas City Center
Sat 06:37:33 PM 37.7183 -97.2358 214° Southwest 260 299 4,100 -1,452 Descending Kansas City Center
Sat 06:37:47 PM 37.7097 -97.2425 211° Southwest 261 300 3,900 -787 Descending Kansas City Center
Sat 06:38:34 PM 37.6581 -97.2850 213° Southwest 255 293 3,300 -689 Descending Kansas City Center
Sat 06:38:48 PM 37.6511 -97.2919 218° Southwest 259 298 3,200 -393 Descending Kansas City Center
Sat 06:39:35 PM 37.6036 -97.3306 213° Southwest 236 272 2,900 -290 Descending Kansas City Center
Sat 06:39:50 PM 37.5961 -97.3389 221° Southwest 250 288 2,900 200 Level Kansas City Center
Sat 06:40:35 PM 37.5608 -97.3872 227° Southwest 212 244 3,100 197 Climbing Kansas City Center
Sat 06:40:51 PM 37.5600 -97.3964 263° West 226 260 3,100 -492 Level Kansas City Center
Sat 06:41:36 PM 37.5756 -97.4511 290° West 181 208 2,600 -484 Descending Kansas City Center
Sat 06:41:53 PM 37.5789 -97.4567 307° West 201 231 2,600 -700 Level Kansas City Center
Sat 06:42:36 PM 37.6100 -97.4589 357° North 124 143 1,900 -787 Descending Kansas City Center
Sat 06:42:54 PM 37.6139 -97.4556 34° Northeast 164 189 1,800 -304 Descending Kansas City Center
Sat 06:43:55 PM 37.6572 -97.4378 18° North 155 178 1,500 -295 Descending Kansas City Center

Login

Don't have an account? Register now (free) for customized features, flight alerts, and more!